Time;durP1;ratioP1;P1;durP2;ratioP2;P2;SDS_P1;SDS_P2;PMS_P1;PMS_P2;Temp;Humidity;BMP_temperature;BMP_pressure;BME280_temperature;BME280_humidity;BME280_pressure;Samples;Min_cycle;Max_cycle;Signal;HPM_P1;HPM_P2
2023/05/09 00:04:16;;;;;;;6.23;4.50;;;;;;;5.74;81.89;97128.44;10416762;28;20208;-64
2023/05/09 00:09:16;;;;;;;7.10;4.80;;;;;;;5.52;82.07;97110.09;10451462;28;20212;-64
2023/05/09 00:14:17;;;;;;;7.73;4.17;;;;;;;5.19;84.44;97129.00;10457235;28;20226;-63
2023/05/09 00:19:17;;;;;;;6.67;4.33;;;;;;;5.10;84.98;97103.69;10457218;28;20236;-64
2023/05/09 00:24:17;;;;;;;10.47;4.43;;;;;;;4.98;87.03;97115.84;10457120;28;20188;-64
2023/05/09 00:29:18;;;;;;;10.73;5.53;;;;;;;4.75;90.36;97123.50;10456933;28;20215;-64
2023/05/09 00:34:18;;;;;;;6.40;4.77;;;;;;;4.56;90.60;97108.41;10456822;28;20218;-64
2023/05/09 00:39:19;;;;;;;6.17;4.30;;;;;;;4.42;92.41;97114.56;10456421;28;20227;-64
2023/05/09 00:44:19;;;;;;;8.17;4.97;;;;;;;4.05;95.99;97118.91;10456329;28;20184;-63
2023/05/09 00:49:20;;;;;;;7.27;4.90;;;;;;;3.89;98.40;97117.38;10456203;28;20261;-63
2023/05/09 00:54:21;;;;;;;7.57;4.40;;;;;;;4.00;97.49;97103.69;10453806;28;20206;-64
2023/05/09 00:59:21;;;;;;;5.20;4.57;;;;;;;4.17;97.89;97114.66;10455574;28;20597;-64
2023/05/09 01:04:22;;;;;;;11.83;4.70;;;;;;;4.03;96.59;97103.47;10455549;28;20187;-64
2023/05/09 01:09:34;;;;;;;6.87;5.23;;;;;;;4.16;97.08;97108.63;10455470;28;20211;-64
2023/05/09 01:14:43;;;;;;;7.80;4.77;;;;;;;3.91;97.19;97097.34;10445157;28;20185;-63
2023/05/09 01:19:56;;;;;;;7.77;5.40;;;;;;;3.69;99.39;97094.56;10412399;28;20255;-63
2023/05/09 01:25:20;;;;;;;7.77;4.43;;;;;;;3.61;100.00;97107.22;10412415;28;20204;-63
2023/05/09 01:30:22;;;;;;;8.80;5.00;;;;;;;3.97;99.39;97077.97;10413465;28;20205;-62
2023/05/09 01:35:25;;;;;;;10.37;4.77;;;;;;;4.25;95.92;97066.50;10412217;28;20263;-63
2023/05/09 01:40:29;;;;;;;8.67;4.27;;;;;;;4.86;91.10;97029.28;10411692;28;20286;-63
2023/05/09 01:45:30;;;;;;;8.20;4.67;;;;;;;5.18;87.55;97015.69;10412951;28;20628;-63
2023/05/09 01:50:31;;;;;;;6.50;4.67;;;;;;;5.19;87.04;97022.50;10411308;28;20286;-63
2023/05/09 01:55:33;;;;;;;9.27;4.70;;;;;;;5.08;87.02;97020.72;10411364;28;20196;-62
2023/05/09 02:00:33;;;;;;;7.67;3.77;;;;;;;5.22;85.10;97006.69;10411003;28;20220;-62
2023/05/09 02:05:36;;;;;;;4.67;3.60;;;;;;;5.20;84.36;96999.97;10412043;28;20197;-63
2023/05/09 02:10:36;;;;;;;7.30;4.10;;;;;;;5.04;84.45;97005.47;10410506;28;20216;-63
2023/05/09 02:15:38;;;;;;;6.87;3.83;;;;;;;4.83;84.44;97003.56;10410263;28;20196;-64
2023/05/09 02:20:40;;;;;;;6.87;3.80;;;;;;;4.81;83.60;96987.28;10410896;28;20675;-63
2023/05/09 02:25:40;;;;;;;5.83;3.60;;;;;;;4.53;84.43;96983.28;10411189;28;20290;-62
2023/05/09 02:30:43;;;;;;;5.83;3.23;;;;;;;4.73;81.82;96981.81;10411107;28;20200;-64
2023/05/09 02:35:45;;;;;;;7.27;3.47;;;;;;;4.84;80.26;96958.50;10411417;28;20188;-63
2023/05/09 02:40:46;;;;;;;4.17;3.03;;;;;;;4.63;81.25;96955.72;10393543;28;20227;-64
2023/05/09 02:45:46;;;;;;;10.27;5.30;;;;;;;4.53;81.12;96963.34;10409948;28;20655;-64
2023/05/09 02:50:47;;;;;;;6.03;3.57;;;;;;;4.67;80.04;96961.50;10374662;28;20209;-64
2023/05/09 02:55:47;;;;;;;8.67;3.20;;;;;;;4.72;79.72;96956.81;10370254;28;20694;-64
2023/05/09 03:00:47;;;;;;;5.13;3.50;;;;;;;4.68;79.55;96963.16;10370189;28;20227;-61
2023/05/09 03:05:48;;;;;;;8.07;4.07;;;;;;;4.63;79.22;96951.34;10401179;28;20287;-64
2023/05/09 03:10:49;;;;;;;5.43;3.60;;;;;;;4.62;79.62;96951.47;10409684;28;20703;-64
2023/05/09 03:15:50;;;;;;;6.40;3.43;;;;;;;4.61;79.44;96955.84;10410375;28;20196;-64
2023/05/09 03:20:51;;;;;;;4.97;3.60;;;;;;;4.68;78.92;96945.00;10416876;28;20224;-64
2023/05/09 03:25:52;;;;;;;5.53;3.43;;;;;;;4.70;78.25;96946.56;10417174;28;20189;-64
2023/05/09 03:30:53;;;;;;;8.00;2.93;;;;;;;4.62;78.31;96936.75;10416697;28;20285;-64
2023/05/09 03:35:57;;;;;;;7.13;3.37;;;;;;;4.60;78.55;96938.59;10456621;28;20407;-63
2023/05/09 03:40:58;;;;;;;4.17;3.00;;;;;;;4.80;77.39;96924.13;10457466;28;20270;-64
2023/05/09 03:45:59;;;;;;;5.17;2.83;;;;;;;4.80;76.97;96918.94;10457514;28;20188;-63
2023/05/09 03:51:01;;;;;;;4.33;3.53;;;;;;;4.75;77.44;96920.25;10457212;28;20212;-64
2023/05/09 03:56:04;;;;;;;5.17;2.97;;;;;;;4.74;77.37;96911.63;10457197;28;20192;-64
2023/05/09 04:01:08;;;;;;;4.17;3.07;;;;;;;4.71;77.20;96924.00;10456589;28;20668;-64
2023/05/09 04:06:08;;;;;;;4.23;3.30;;;;;;;4.63;78.16;96934.97;10453984;28;20194;-64
2023/05/09 04:11:12;;;;;;;3.17;2.53;;;;;;;4.68;78.07;96932.84;10391548;28;20710;-64
2023/05/09 04:16:16;;;;;;;6.00;3.60;;;;;;;4.68;77.03;96913.88;10391154;28;20667;-63
2023/05/09 04:21:17;;;;;;;5.33;2.63;;;;;;;4.68;77.44;96921.66;10393355;28;20229;-64
2023/05/09 04:26:21;;;;;;;7.97;3.33;;;;;;;4.69;77.73;96918.94;10411409;28;20619;-63
2023/05/09 04:31:25;;;;;;;5.87;3.47;;;;;;;4.80;77.41;96907.75;10389483;28;20205;-64
2023/05/09 04:36:26;;;;;;;5.97;3.10;;;;;;;5.02;75.98;96891.34;10373435;28;20627;-64
2023/05/09 04:41:29;;;;;;;4.83;3.10;;;;;;;5.31;74.65;96881.34;10372817;28;20283;-63
2023/05/09 04:46:30;;;;;;;3.70;2.80;;;;;;;5.54;73.62;96860.50;10373229;28;20189;-64
2023/05/09 04:51:31;;;;;;;5.83;3.20;;;;;;;5.84;73.83;96867.63;10380244;28;20201;-64
2023/05/09 04:56:31;;;;;;;3.57;2.57;;;;;;;6.09;71.39;96831.88;10372768;28;20189;-64
2023/05/09 05:01:33;;;;;;;6.80;3.30;;;;;;;6.35;69.38;96821.91;10384358;28;20220;-64
2023/05/09 05:06:34;;;;;;;6.97;3.10;;;;;;;6.51;70.20;96831.91;10373482;28;20185;-64
2023/05/09 05:11:35;;;;;;;3.50;3.07;;;;;;;6.61;69.68;96821.53;10372011;28;20299;-64
2023/05/09 05:16:37;;;;;;;4.07;3.00;;;;;;;6.72;68.15;96810.22;10371221;28;20197;-64
2023/05/09 05:21:37;;;;;;;3.50;2.70;;;;;;;6.96;67.11;96796.88;10414194;23;20591;-65
2023/05/09 05:26:39;;;;;;;4.37;2.67;;;;;;;7.23;65.80;96780.66;10395554;28;20246;-65
2023/05/09 05:31:39;;;;;;;4.20;2.83;;;;;;;7.50;66.42;96797.41;10413386;28;20757;-64
2023/05/09 05:36:40;;;;;;;7.03;3.00;;;;;;;7.61;65.82;96776.47;10395679;28;20204;-65
2023/05/09 05:41:41;;;;;;;6.10;2.90;;;;;;;7.81;64.89;96782.50;10393137;28;20354;-65
2023/05/09 05:46:42;;;;;;;5.87;3.10;;;;;;;8.05;63.77;96760.38;10395139;28;20192;-65
2023/05/09 05:51:43;;;;;;;3.97;2.90;;;;;;;8.44;62.35;96743.81;10394290;28;20205;-65
2023/05/09 05:56:44;;;;;;;4.30;3.00;;;;;;;8.68;61.10;96725.06;10393873;28;20185;-65
2023/05/09 06:01:44;;;;;;;3.60;2.30;;;;;;;8.76;60.67;96717.34;10404062;28;20224;-65
2023/05/09 06:06:45;;;;;;;2.87;2.20;;;;;;;9.39;58.79;96694.81;10394188;28;20279;-64
2023/05/09 06:11:46;;;;;;;3.30;2.70;;;;;;;9.59;57.23;96675.34;10392222;28;20323;-65
2023/05/09 06:16:46;;;;;;;3.53;2.70;;;;;;;9.95;57.86;96693.63;10385543;28;20188;-65
2023/05/09 06:21:47;;;;;;;6.15;3.08;;;;;;;10.33;56.15;96682.91;10393288;28;20229;-66
2023/05/09 06:26:49;;;;;;;3.22;2.63;;;;;;;10.70;56.29;96687.84;10394014;28;20208;-66
2023/05/09 06:31:50;;;;;;;5.05;3.00;;;;;;;10.95;55.16;96671.34;10411067;28;20220;-66
2023/05/09 06:36:50;;;;;;;4.72;2.50;;;;;;;10.91;54.85;96673.50;10400020;28;20698;-66
2023/05/09 06:41:50;;;;;;;4.30;2.90;;;;;;;10.94;54.87;96656.63;10397356;28;20713;-65
2023/05/09 06:46:58;;;;;;;5.22;2.67;;;;;;;10.32;55.33;96650.66;10390529;28;20185;-66
2023/05/09 06:51:58;;;;;;;5.03;2.67;;;;;;;11.14;55.97;96688.63;10407834;28;20216;-66
2023/05/09 06:56:59;;;;;;;3.78;2.40;;;;;;;11.24;54.13;96631.63;10417801;28;20251;-66
2023/05/09 07:01:59;;;;;;;5.75;2.90;;;;;;;11.04;54.47;96642.41;10416767;28;20188;-66
2023/05/09 07:06:59;;;;;;;3.50;2.40;;;;;;;11.49;53.39;96615.88;10417687;28;20192;-66
2023/05/09 07:12:00;;;;;;;5.78;2.40;;;;;;;11.80;52.06;96600.25;10420872;28;20234;-66
2023/05/09 07:17:00;;;;;;;5.50;2.33;;;;;;;12.37;50.73;96582.72;10457729;28;20688;-66
2023/05/09 07:22:01;;;;;;;4.60;2.60;;;;;;;11.93;52.37;96616.34;10445274;28;20788;-66
2023/05/09 07:27:02;;;;;;;3.65;2.60;;;;;;;12.54;50.30;96586.94;10415367;28;20655;-66
2023/05/09 07:32:03;;;;;;;3.22;2.30;;;;;;;12.72;50.02;96577.97;10413785;28;20267;-65
2023/05/09 07:37:03;;;;;;;3.40;2.60;;;;;;;12.90;49.58;96569.81;10414011;28;20339;-66
2023/05/09 07:42:04;;;;;;;3.72;2.45;;;;;;;13.59;48.63;96563.69;10416357;28;20243;-66
2023/05/09 07:47:04;;;;;;;4.55;2.70;;;;;;;13.24;49.07;96555.41;10414359;28;20196;-66
2023/05/09 07:52:05;;;;;;;3.72;2.40;;;;;;;12.69;49.79;96547.56;10415464;28;20203;-66
2023/05/09 07:57:05;;;;;;;6.97;2.58;;;;;;;13.97;47.80;96546.03;10438071;28;20192;-66
2023/05/09 08:02:05;;;;;;;5.35;2.63;;;;;;;13.66;49.21;96575.13;10414689;28;20728;-66
2023/05/09 08:07:07;;;;;;;3.88;2.40;;;;;;;13.23;49.67;96561.66;10415616;28;20216;-66
2023/05/09 08:12:08;;;;;;;6.05;2.40;;;;;;;13.71;48.76;96557.00;10414617;28;20197;-66
2023/05/09 08:17:08;;;;;;;4.72;2.60;;;;;;;13.77;48.03;96535.22;10413143;28;20663;-66
2023/05/09 08:22:15;;;;;;;4.47;2.53;;;;;;;13.74;47.29;96519.78;10414372;28;20703;-66
2023/05/09 08:27:15;;;;;;;5.97;2.70;;;;;;;13.47;48.65;96540.44;10413003;28;20198;-66
2023/05/09 08:32:16;;;;;;;7.53;2.72;;;;;;;13.96;48.41;96538.31;10413750;28;20551;-67
2023/05/09 08:37:16;;;;;;;4.43;2.47;;;;;;;13.99;46.36;96485.25;10412991;28;20216;-66
2023/05/09 08:42:21;;;;;;;6.05;2.70;;;;;;;14.59;47.36;96523.69;10402880;28;20279;-66
2023/05/09 08:47:22;;;;;;;3.83;2.60;;;;;;;15.46;44.03;96468.22;10412998;28;20215;-66
2023/05/09 08:52:22;;;;;;;4.47;2.38;;;;;;;15.10;45.91;96495.56;10412233;28;20687;-66
2023/05/09 08:57:23;;;;;;;3.60;2.00;;;;;;;15.43;41.02;96371.75;10413957;28;20213;-66
2023/05/09 09:02:23;;;;;;;6.40;2.10;;;;;;;15.20;39.48;96329.00;10395208;28;20200;-66
2023/05/09 09:07:24;;;;;;;3.28;2.13;;;;;;;14.91;40.17;96336.94;10412788;28;20713;-66
2023/05/09 09:12:25;;;;;;;2.25;1.60;;;;;;;14.87;40.39;96354.19;10412600;28;20200;-65
2023/05/09 09:17:27;;;;;;;3.10;2.00;;;;;;;14.45;39.68;96327.66;10410848;28;20240;-66
2023/05/09 09:22:32;;;;;;;2.80;2.05;;;;;;;15.44;39.02;96349.63;10417794;28;20184;-66
2023/05/09 09:27:33;;;;;;;6.93;2.10;;;;;;;16.25;36.32;96299.66;10411109;28;20208;-66
2023/05/09 09:32:34;;;;;;;6.93;3.10;;;;;;;17.19;36.29;96330.34;10393957;28;20207;-67
2023/05/09 09:37:35;;;;;;;4.60;2.20;;;;;;;17.62;35.51;96324.47;10410651;28;20224;-67
2023/05/09 09:42:46;;;;;;;2.95;2.20;;;;;;;17.51;35.60;96325.16;10411078;28;20689;-67
2023/05/09 09:47:48;;;;;;;2.92;2.00;;;;;;;17.55;35.88;96325.53;10410441;28;20215;-67
2023/05/09 09:52:50;;;;;;;3.97;2.10;;;;;;;17.61;39.46;96441.25;10419244;28;20196;-67
2023/05/09 09:57:51;;;;;;;6.25;2.70;;;;;;;18.57;41.28;96523.72;10410720;28;20699;-67
2023/05/09 10:02:56;;;;;;;8.32;2.38;;;;;;;18.44;38.73;96448.50;10410403;28;20268;-67
2023/05/09 10:07:58;;;;;;;6.20;3.00;;;;;;;17.32;37.55;96384.28;10410130;28;20215;-67
2023/05/09 10:13:02;;;;;;;3.17;2.45;;;;;;;16.80;40.18;96435.19;10409373;28;20671;-67
2023/05/09 10:18:03;;;;;;;4.13;2.47;;;;;;;15.89;38.19;96336.00;10409914;28;20236;-67
2023/05/09 10:23:05;;;;;;;4.53;2.10;;;;;;;16.64;39.56;96415.22;10409044;28;20828;-68
2023/05/09 10:28:12;;;;;;;5.15;2.33;;;;;;;16.52;36.38;96313.72;10407377;28;20205;-67
2023/05/09 10:33:15;;;;;;;4.28;2.40;;;;;;;16.12;36.57;96308.41;10410077;28;20185;-68
2023/05/09 10:38:15;;;;;;;6.18;2.05;;;;;;;15.71;39.30;96357.63;10408996;28;20221;-67
2023/05/09 10:43:15;;;;;;;4.22;2.33;;;;;;;16.81;37.85;96351.34;10406977;28;20200;-68
2023/05/09 10:48:16;;;;;;;2.97;1.88;;;;;;;16.30;34.56;96231.16;10408594;28;20216;-68
2023/05/09 10:53:17;;;;;;;3.38;2.47;;;;;;;16.49;38.36;96353.78;10409083;28;20203;-68
2023/05/09 10:58:43;;;;;;;4.80;2.20;;;;;;;17.61;36.71;96329.97;10404139;28;20223;-68
2023/05/09 11:03:54;;;;;;;4.72;2.10;;;;;;;17.06;33.17;96201.50;10382236;28;20203;-67
2023/05/09 11:08:54;;;;;;;2.42;2.05;;;;;;;15.89;36.04;96242.75;10404316;28;20668;-68
2023/05/09 11:13:56;;;;;;;5.63;2.42;;;;;;;16.21;37.12;96308.00;10407629;28;20189;-67
2023/05/09 11:18:57;;;;;;;2.88;1.92;;;;;;;17.56;36.93;96316.56;10406409;28;20232;-69
2023/05/09 11:23:57;;;;;;;6.85;2.20;;;;;;;17.71;36.11;96292.47;10403259;28;20211;-69
2023/05/09 11:28:58;;;;;;;2.85;2.08;;;;;;;17.52;34.92;96242.03;10411904;28;20202;-70
2023/05/09 11:34:03;;;;;;;6.75;2.40;;;;;;;17.23;34.66;96209.78;10430830;23;20730;-63
2023/05/09 11:39:10;;;;;;;3.80;2.33;;;;;;;17.65;35.18;96238.47;10396770;28;20209;-63
2023/05/09 11:44:20;;;;;;;7.72;2.15;;;;;;;17.71;33.93;96203.19;10404091;28;20212;-62
2023/05/09 11:49:20;;;;;;;3.28;2.15;;;;;;;17.93;33.53;96187.78;10430940;28;20184;-61
2023/05/09 11:54:22;;;;;;;3.53;1.80;;;;;;;17.86;33.42;96165.00;10455203;28;20219;-63
2023/05/09 11:59:23;;;;;;;2.60;1.88;;;;;;;16.86;34.51;96171.63;10456248;28;20216;-61
2023/05/09 12:04:23;;;;;;;3.55;2.05;;;;;;;17.19;35.55;96215.72;10454921;28;20219;-63
2023/05/09 12:09:26;;;;;;;1.73;1.33;;;;;;;17.28;33.73;96161.50;10456289;28;20213;-62
2023/05/09 12:14:28;;;;;;;4.55;2.00;;;;;;;17.86;35.77;96240.00;10454902;28;20266;-62
2023/05/09 12:19:28;;;;;;;4.75;2.30;;;;;;;17.44;33.62;96157.53;10455682;28;20223;-63
2023/05/09 12:24:29;;;;;;;2.30;1.80;;;;;;;16.83;35.13;96175.53;10455299;28;20218;-61
2023/05/09 12:29:30;;;;;;;3.38;1.65;;;;;;;16.43;34.67;96153.66;10455783;28;20261;-62
2023/05/09 12:34:31;;;;;;;6.68;3.20;;;;;;;15.78;34.92;96131.38;10415699;28;20327;-64
2023/05/09 12:39:31;;;;;;;3.40;2.08;;;;;;;16.10;33.87;96122.84;10413015;28;20593;-64
2023/05/09 12:44:31;;;;;;;2.78;2.40;;;;;;;16.38;33.67;96126.00;10413605;28;20239;-63
2023/05/09 12:49:35;;;;;;;5.78;2.53;;;;;;;16.82;35.01;96173.88;10412528;28;20380;-62
2023/05/09 12:54:36;;;;;;;4.00;2.60;;;;;;;16.86;36.72;96221.91;10412035;28;20205;-62
2023/05/09 12:59:39;;;;;;;3.13;2.28;;;;;;;17.23;35.11;96171.91;10412861;28;20266;-64
2023/05/09 13:04:40;;;;;;;3.22;2.28;;;;;;;17.22;36.18;96204.69;10380092;28;20220;-63
2023/05/09 13:09:55;;;;;;;6.05;2.42;;;;;;;17.79;33.91;96142.00;10391310;28;20196;-64
2023/05/09 13:14:55;;;;;;;4.32;2.85;;;;;;;16.59;35.28;96116.19;10390681;28;20214;-64
2023/05/09 13:19:56;;;;;;;3.63;2.10;;;;;;;17.21;34.47;96107.78;10390737;28;20240;-67
2023/05/09 13:24:56;;;;;;;5.15;2.35;;;;;;;17.02;35.75;96136.78;10381829;28;20852;-66
2023/05/09 13:29:57;;;;;;;7.30;2.03;;;;;;;17.36;36.00;96136.59;10390372;28;20221;-67
2023/05/09 13:34:57;;;;;;;5.60;2.30;;;;;;;16.76;34.94;96080.31;10387897;28;20248;-65
2023/05/09 13:39:57;;;;;;;3.10;1.55;;;;;;;16.69;33.44;96016.06;10389182;28;20790;-65
2023/05/09 13:44:58;;;;;;;3.95;2.30;;;;;;;16.94;33.71;96033.84;10380155;28;20692;-65
2023/05/09 13:49:58;;;;;;;5.75;2.33;;;;;;;18.18;32.53;96036.66;10369542;28;20559;-65
2023/05/09 13:54:58;;;;;;;2.97;2.20;;;;;;;19.31;31.32;96041.53;10369980;28;20623;-67
2023/05/09 13:59:59;;;;;;;2.90;1.83;;;;;;;18.33;30.69;95967.34;10370019;28;20611;-66
2023/05/09 14:05:01;;;;;;;10.00;2.33;;;;;;;18.00;33.74;96060.50;10398552;28;20715;-65
2023/05/09 14:10:03;;;;;;;3.28;2.50;;;;;;;20.33;30.67;96038.75;10398738;28;20573;-66
2023/05/09 14:15:07;;;;;;;12.07;4.10;;;;;;;20.26;31.93;96076.09;10410151;28;20294;-67
2023/05/09 14:20:08;;;;;;;2.95;2.40;;;;;;;19.78;32.96;96072.66;10410647;28;20303;-67
2023/05/09 14:25:08;;;;;;;5.65;2.20;;;;;;;19.04;33.23;96041.13;10402026;28;20212;-65
2023/05/09 14:30:09;;;;;;;4.80;2.75;;;;;;;18.95;34.22;96069.81;10389819;28;20682;-67
2023/05/09 14:35:10;;;;;;;2.90;2.53;;;;;;;21.25;33.09;96124.94;10387659;28;20240;-66
2023/05/09 14:40:10;;;;;;;6.18;3.03;;;;;;;20.14;33.79;96082.25;10401581;28;20266;-66
2023/05/09 14:45:11;;;;;;;7.28;3.13;;;;;;;21.01;33.84;96107.19;10409008;28;20216;-65
2023/05/09 14:50:14;;;;;;;9.23;3.85;;;;;;;20.10;34.01;96065.13;10408667;28;20575;-65
2023/05/09 14:55:14;;;;;;;6.15;2.95;;;;;;;20.13;34.33;96072.66;10409514;28;20216;-67
2023/05/09 15:00:16;;;;;;;7.70;3.47;;;;;;;18.60;38.98;96135.97;10370109;28;20232;-66
2023/05/09 15:05:16;;;;;;;8.30;3.28;;;;;;;19.31;38.01;96131.84;10368272;28;20217;-66
2023/05/09 15:10:17;;;;;;;9.88;4.00;;;;;;;17.96;41.02;96157.38;10368853;28;20181;-67
2023/05/09 15:15:19;;;;;;;9.43;3.65;;;;;;;18.51;39.87;96141.56;10394878;28;20307;-66
2023/05/09 15:20:20;;;;;;;5.65;3.83;;;;;;;19.37;39.83;96177.91;10417293;28;20266;-67
2023/05/09 15:25:21;;;;;;;6.13;3.63;;;;;;;18.46;41.41;96167.94;10417178;28;20224;-65
2023/05/09 15:30:22;;;;;;;4.82;3.17;;;;;;;18.71;40.55;96153.78;10416913;28;20678;-67
2023/05/09 15:35:22;;;;;;;7.70;4.13;;;;;;;18.78;41.22;96177.59;10416633;28;20240;-68
2023/05/09 15:40:22;;;;;;;4.78;3.47;;;;;;;18.70;40.92;96154.84;10415886;28;20312;-65
2023/05/09 15:45:23;;;;;;;4.32;3.55;;;;;;;19.10;41.45;96183.56;10415339;28;20231;-66
2023/05/09 15:50:23;;;;;;;2.38;2.17;;;;;;;18.39;39.60;96092.91;10414526;28;20211;-67
2023/05/09 15:55:24;;;;;;;5.38;3.05;;;;;;;18.51;40.04;96095.66;10397735;28;20221;-67
2023/05/09 16:00:24;;;;;;;7.13;2.80;;;;;;;17.29;41.77;96108.34;10394562;28;20217;-67
2023/05/09 16:05:25;;;;;;;5.60;3.10;;;;;;;16.67;43.45;96110.66;10393262;28;20294;-65
2023/05/09 16:10:26;;;;;;;3.95;2.80;;;;;;;17.62;42.91;96138.25;10411551;28;20192;-66
2023/05/09 16:15:26;;;;;;;3.53;2.95;;;;;;;17.00;44.20;96140.66;10431161;28;20713;-67
2023/05/09 16:20:26;;;;;;;4.93;3.10;;;;;;;16.62;44.83;96136.94;10389379;28;20212;-65
2023/05/09 16:25:27;;;;;;;3.42;2.83;;;;;;;16.67;45.71;96155.63;10398111;28;20216;-66
2023/05/09 16:30:27;;;;;;;6.38;3.63;;;;;;;16.34;47.08;96184.78;10413544;28;20189;-66
2023/05/09 16:35:28;;;;;;;5.35;3.42;;;;;;;16.07;47.22;96176.91;10414732;28;20325;-65
2023/05/09 16:40:28;;;;;;;5.55;3.05;;;;;;;15.80;48.21;96192.75;10415045;28;20216;-65
2023/05/09 16:45:28;;;;;;;5.15;2.50;;;;;;;15.52;47.71;96169.13;10414909;28;20219;-65
2023/05/09 16:50:29;;;;;;;4.53;3.28;;;;;;;15.58;48.11;96170.94;10412614;28;20185;-66
2023/05/09 16:55:29;;;;;;;9.00;3.63;;;;;;;15.53;49.70;96215.63;10413694;28;20702;-65
2023/05/09 17:00:30;;;;;;;4.65;3.42;;;;;;;15.08;49.86;96181.00;10413757;28;20224;-65
2023/05/09 17:05:30;;;;;;;5.50;3.10;;;;;;;15.19;50.36;96185.72;10413698;28;20212;-68
2023/05/09 17:10:30;;;;;;;8.60;3.35;;;;;;;15.28;50.42;96179.25;10413138;28;20197;-65
2023/05/09 17:15:33;;;;;;;5.68;3.17;;;;;;;15.01;49.99;96159.03;10413178;28;20760;-65
2023/05/09 17:20:33;;;;;;;3.35;2.95;;;;;;;14.79;51.73;96175.81;10412799;28;20232;-65
2023/05/09 17:25:34;;;;;;;7.57;3.17;;;;;;;14.85;51.63;96181.31;10411460;28;20220;-64
2023/05/09 17:30:34;;;;;;;3.45;2.92;;;;;;;14.53;51.30;96160.66;10412537;28;20264;-64
2023/05/09 17:35:36;;;;;;;5.55;3.45;;;;;;;14.55;52.31;96171.81;10398921;23;20249;-67
2023/05/09 17:40:36;;;;;;;4.40;2.95;;;;;;;14.43;51.92;96161.00;10371393;28;20225;-67
2023/05/09 17:45:37;;;;;;;3.05;2.78;;;;;;;14.31;52.09;96149.38;10370812;28;20217;-66
2023/05/09 17:50:37;;;;;;;5.55;3.20;;;;;;;14.20;52.29;96142.81;10370954;28;20227;-66
2023/05/09 17:55:38;;;;;;;6.88;3.33;;;;;;;14.11;53.50;96170.31;10369134;28;20296;-67
2023/05/09 18:00:38;;;;;;;8.55;3.58;;;;;;;13.94;53.15;96153.19;10370193;28;20225;-66
2023/05/09 18:05:41;;;;;;;6.85;2.80;;;;;;;13.84;54.41;96170.16;10392658;28;20209;-67
2023/05/09 18:10:41;;;;;;;4.18;3.40;;;;;;;13.65;54.08;96149.72;10408079;28;20694;-66
2023/05/09 18:15:41;;;;;;;5.82;3.00;;;;;;;13.57;54.18;96148.03;10408198;28;20212;-66
2023/05/09 18:20:42;;;;;;;6.47;2.83;;;;;;;13.48;54.29;96139.44;10410257;28;20227;-66
2023/05/09 18:25:42;;;;;;;4.22;2.97;;;;;;;13.36;54.11;96133.88;10411277;28;20721;-65
2023/05/09 18:30:42;;;;;;;4.57;2.78;;;;;;;13.17;54.79;96135.28;10410931;28;20555;-66
2023/05/09 18:35:43;;;;;;;3.92;2.92;;;;;;;13.12;55.19;96147.38;10408906;28;20303;-66
2023/05/09 18:40:43;;;;;;;5.97;3.00;;;;;;;12.92;55.87;96150.59;10370047;28;20247;-67
2023/05/09 18:45:46;;;;;;;7.88;2.42;;;;;;;12.83;55.72;96138.53;10369377;28;20217;-66
2023/05/09 18:50:47;;;;;;;2.80;2.50;;;;;;;12.73;55.50;96136.22;10369460;28;20185;-66
2023/05/09 18:55:48;;;;;;;3.17;2.90;;;;;;;12.67;55.80;96137.75;10369090;28;20217;-66
2023/05/09 19:00:48;;;;;;;5.95;2.85;;;;;;;12.64;55.93;96130.25;10347909;28;20305;-67
2023/05/09 19:05:48;;;;;;;3.63;2.92;;;;;;;12.54;56.20;96124.47;10328877;28;20213;-67
2023/05/09 19:10:49;;;;;;;4.43;2.88;;;;;;;12.49;56.65;96122.38;10328649;28;20198;-67
2023/05/09 19:15:49;;;;;;;4.40;2.95;;;;;;;12.43;56.58;96115.22;10328852;28;20303;-66
2023/05/09 19:20:49;;;;;;;5.53;2.80;;;;;;;12.41;56.70;96121.69;10328209;28;20225;-67
2023/05/09 19:25:51;;;;;;;5.65;2.95;;;;;;;12.34;57.13;96124.19;10328548;28;20229;-66
2023/05/09 19:30:52;;;;;;;6.45;2.90;;;;;;;12.26;57.68;96133.00;10328310;28;20198;-66
2023/05/09 19:35:52;;;;;;;5.55;2.72;;;;;;;12.22;57.83;96133.53;10328014;28;20249;-66
2023/05/09 19:40:53;;;;;;;3.78;2.80;;;;;;;12.14;57.75;96110.81;10328106;28;20226;-66
2023/05/09 19:45:53;;;;;;;2.97;2.60;;;;;;;12.09;57.96;96116.59;10327934;28;20252;-65
2023/05/09 19:50:57;;;;;;;5.25;2.88;;;;;;;12.10;58.29;96101.69;10328183;28;20217;-64
2023/05/09 19:55:57;;;;;;;7.18;3.10;;;;;;;12.06;58.26;96105.66;10327925;28;20225;-67
2023/05/09 20:00:58;;;;;;;11.15;3.17;;;;;;;12.00;58.39;96117.69;10338375;28;20715;-67
2023/05/09 20:05:58;;;;;;;7.68;3.03;;;;;;;11.92;58.78;96112.50;10351657;28;20587;-67
2023/05/09 20:10:59;;;;;;;11.85;3.55;;;;;;;11.92;58.91;96109.88;10369324;28;20564;-67
2023/05/09 20:16:01;;;;;;;3.72;2.97;;;;;;;11.91;58.74;96101.19;10374965;28;20706;-67
2023/05/09 20:21:02;;;;;;;3.65;3.10;;;;;;;11.76;59.45;96089.84;10374962;28;20213;-67
2023/05/09 20:26:02;;;;;;;4.10;2.92;;;;;;;11.74;59.36;96086.59;10375378;28;20213;-67
2023/05/09 20:31:03;;;;;;;4.90;3.10;;;;;;;11.72;59.61;96099.09;10374916;28;20674;-67
2023/05/09 20:36:05;;;;;;;3.92;2.80;;;;;;;11.66;60.21;96078.81;10374734;28;20318;-67
2023/05/09 20:41:05;;;;;;;3.97;2.78;;;;;;;11.55;60.53;96090.56;10374547;28;20256;-66
2023/05/09 20:46:06;;;;;;;5.57;3.55;;;;;;;11.57;60.23;96057.06;10374370;28;20255;-66
2023/05/09 20:51:06;;;;;;;4.72;3.10;;;;;;;11.52;60.30;96060.22;10374730;28;20208;-66
2023/05/09 20:56:06;;;;;;;8.10;2.97;;;;;;;11.40;61.02;96049.34;10374161;28;20583;-67
2023/05/09 21:01:07;;;;;;;4.93;3.08;;;;;;;11.30;61.00;96059.31;10374025;28;20221;-66
2023/05/09 21:06:08;;;;;;;4.00;2.60;;;;;;;11.34;61.55;96030.91;10373323;28;20225;-66
2023/05/09 21:11:08;;;;;;;3.23;2.93;;;;;;;11.34;61.03;96030.91;10372805;28;20189;-66
2023/05/09 21:16:09;;;;;;;5.37;3.13;;;;;;;11.28;60.95;96016.69;10373757;28;20248;-66
2023/05/09 21:21:10;;;;;;;4.43;3.37;;;;;;;11.25;61.24;96003.94;10373225;28;20232;-65
2023/05/09 21:26:10;;;;;;;5.03;2.83;;;;;;;11.17;61.63;95998.78;10373369;28;20215;-65
2023/05/09 21:31:10;;;;;;;3.17;2.50;;;;;;;11.16;61.28;95992.69;10372957;28;20200;-65
2023/05/09 21:36:11;;;;;;;4.30;2.80;;;;;;;11.12;62.12;95998.47;10372731;28;20260;-65
2023/05/09 21:41:11;;;;;;;3.13;2.50;;;;;;;11.12;61.46;95985.38;10372619;28;20233;-66
2023/05/09 21:46:11;;;;;;;2.97;2.67;;;;;;;10.98;62.88;96014.00;10372432;28;20231;-65
2023/05/09 21:51:12;;;;;;;4.33;2.90;;;;;;;11.03;62.12;95995.94;10372296;28;20667;-65
2023/05/09 21:56:12;;;;;;;4.07;3.00;;;;;;;10.98;62.29;95972.06;10371967;28;20828;-65
2023/05/09 22:01:14;;;;;;;7.50;2.80;;;;;;;10.98;62.10;95987.81;10372011;28;20213;-64
2023/05/09 22:06:15;;;;;;;5.10;2.77;;;;;;;10.90;62.30;95977.38;10371753;28;20555;-65
2023/05/09 22:11:15;;;;;;;4.83;2.77;;;;;;;10.86;62.51;95974.28;10371905;28;20219;-65
2023/05/09 22:16:16;;;;;;;6.53;2.97;;;;;;;10.80;63.17;95987.28;10371363;28;20207;-65
2023/05/09 22:21:16;;;;;;;3.80;3.10;;;;;;;10.86;63.07;95953.34;10370977;28;20282;-65
2023/05/09 22:26:17;;;;;;;4.77;2.57;;;;;;;10.79;63.69;95980.41;10371166;28;20583;-64
2023/05/09 22:31:17;;;;;;;4.67;2.20;;;;;;;10.73;64.03;95973.25;10371030;28;20698;-65
2023/05/09 22:36:18;;;;;;;6.93;2.90;;;;;;;10.62;64.32;95983.16;10370760;28;20729;-65
2023/05/09 22:41:18;;;;;;;2.60;2.23;;;;;;;10.58;65.09;95981.06;10370527;28;20221;-65
2023/05/09 22:46:19;;;;;;;3.43;2.83;;;;;;;10.47;65.42;95987.50;10370944;28;20684;-66
2023/05/09 22:51:19;;;;;;;6.20;3.40;;;;;;;10.54;65.30;95964.88;10370368;28;20189;-66
2023/05/09 22:56:19;;;;;;;6.50;3.27;;;;;;;10.61;64.88;95967.63;10370349;28;20212;-65
2023/05/09 23:01:20;;;;;;;5.67;3.00;;;;;;;10.50;65.22;95960.97;10370145;28;20229;-65
2023/05/09 23:06:20;;;;;;;4.93;2.40;;;;;;;10.39;65.51;95966.63;10370164;28;20499;-66
2023/05/09 23:11:22;;;;;;;4.63;3.10;;;;;;;10.24;66.56;95966.53;10370183;28;20197;-64
2023/05/09 23:16:22;;;;;;;3.80;3.10;;;;;;;10.24;66.17;95950.81;10369871;28;20330;-65
2023/05/09 23:21:23;;;;;;;5.07;2.70;;;;;;;10.14;66.63;95961.50;10369893;28;20315;-65
2023/05/09 23:26:23;;;;;;;6.17;3.00;;;;;;;10.21;66.59;95944.13;10369718;28;20216;-66